createdAt,value
2022-11-05T00:00:57.264Z,9.43
2022-11-05T00:03:42.414Z,9.50
2022-11-05T00:06:34.553Z,9.57
2022-11-05T00:09:22.510Z,9.63
2022-11-05T00:12:11.469Z,9.78
2022-11-05T00:15:00.573Z,9.85
2022-11-05T00:18:04.677Z,9.97
2022-11-05T00:20:53.154Z,9.98
2022-11-05T00:23:54.306Z,10.07
2022-11-05T00:26:27.445Z,9.87
2022-11-05T00:29:02.048Z,9.59
2022-11-05T00:31:33.676Z,9.46
2022-11-05T00:34:03.949Z,9.35
2022-11-05T00:36:38.196Z,9.40
2022-11-05T00:39:53.004Z,9.35
2022-11-05T00:42:45.904Z,9.39
2022-11-05T00:45:16.959Z,9.26
2022-11-05T00:48:19.407Z,9.11
2022-11-05T00:50:50.754Z,9.09
2022-11-05T00:53:25.639Z,8.99
2022-11-05T00:56:04.355Z,9.17
2022-11-05T00:58:32.363Z,9.33
2022-11-05T01:02:04.357Z,9.22
2022-11-05T01:04:06.420Z,9.02
2022-11-05T01:06:40.005Z,8.83
2022-11-05T01:09:10.913Z,8.88
2022-11-05T01:12:24.294Z,8.85
2022-11-05T01:15:22.689Z,8.82
2022-11-05T01:18:14.070Z,8.95
2022-11-05T01:20:53.342Z,8.98
2022-11-05T01:23:28.747Z,8.98
2022-11-05T01:26:07.473Z,8.98
2022-11-05T01:28:39.468Z,8.90
2022-11-05T01:31:16.395Z,8.90
2022-11-05T01:33:49.225Z,8.86
2022-11-05T01:36:17.129Z,8.74
2022-11-05T01:38:46.759Z,8.85
2022-11-05T01:41:34.912Z,8.84
2022-11-05T01:44:52.220Z,9.00
2022-11-05T01:47:44.364Z,9.11
2022-11-05T01:50:31.570Z,9.04
2022-11-05T01:53:04.679Z,8.92
2022-11-05T01:55:35.315Z,8.99
2022-11-05T01:58:04.479Z,8.97
2022-11-05T02:00:58.411Z,8.88
2022-11-05T02:04:02.154Z,8.89
2022-11-05T02:06:30.614Z,8.92
2022-11-05T02:09:01.519Z,8.90
2022-11-05T02:11:49.816Z,8.95
2022-11-05T02:14:30.188Z,8.87
2022-11-05T02:17:13.063Z,8.88
2022-11-05T02:24:12.760Z,8.84
2022-11-05T02:30:04.848Z,9.04
2022-11-05T02:33:24.436Z,9.06
2022-11-05T02:36:33.652Z,8.97
2022-11-05T02:42:22.280Z,9.06
2022-11-05T02:45:12.546Z,9.01
2022-11-05T02:48:07.112Z,9.00
2022-11-05T02:50:57.740Z,9.03
2022-11-05T02:53:54.873Z,9.02
2022-11-05T02:56:49.286Z,9.01
2022-11-05T02:59:21.345Z,9.02
2022-11-05T03:01:49.421Z,9.07
2022-11-05T03:04:20.828Z,9.16
2022-11-05T03:07:08.222Z,9.09
2022-11-05T03:09:58.285Z,9.03
2022-11-05T03:12:33.485Z,9.01
2022-11-05T03:15:08.940Z,8.97
2022-11-05T03:17:42.591Z,9.02
2022-11-05T03:20:18.588Z,9.02
2022-11-05T03:22:52.355Z,9.03
2022-11-05T03:25:22.563Z,9.06
2022-11-05T03:27:55.719Z,9.08
2022-11-05T03:30:24.931Z,9.11
2022-11-05T03:32:56.126Z,9.21
2022-11-05T03:35:27.618Z,9.03
2022-11-05T03:37:58.909Z,9.03
2022-11-05T03:40:27.425Z,8.98
2022-11-05T03:42:56.492Z,8.99
2022-11-05T03:45:27.779Z,9.10
2022-11-05T03:47:59.002Z,9.01
2022-11-05T03:50:35.888Z,9.09
2022-11-05T03:53:29.251Z,9.00
2022-11-05T03:56:02.025Z,9.01
2022-11-05T03:58:30.502Z,9.15
2022-11-05T04:01:01.020Z,9.23
2022-11-05T04:03:28.640Z,9.26
2022-11-05T04:06:15.250Z,9.19
2022-11-05T04:09:00.486Z,9.12
2022-11-05T04:11:45.557Z,9.17
2022-11-05T04:14:13.120Z,9.23
2022-11-05T04:17:09.645Z,9.25
2022-11-05T04:20:04.507Z,9.29
2022-11-05T04:22:52.768Z,9.45
2022-11-05T04:25:21.859Z,9.49
2022-11-05T04:27:49.683Z,9.28
2022-11-05T04:30:20.548Z,8.91
2022-11-05T04:33:02.770Z,8.58
2022-11-05T04:35:31.453Z,8.46
2022-11-05T04:38:00.585Z,8.47
2022-11-05T04:40:28.272Z,8.77
2022-11-05T04:42:56.497Z,8.88
2022-11-05T04:45:36.918Z,8.57
2022-11-05T04:48:06.525Z,8.44
2022-11-05T04:50:34.972Z,8.45
2022-11-05T04:53:05.683Z,8.33
2022-11-05T04:55:33.315Z,8.31
2022-11-05T04:58:00.971Z,8.25
2022-11-05T05:00:29.387Z,8.23
2022-11-05T05:02:57.741Z,8.21
2022-11-05T05:05:26.511Z,8.22
2022-11-05T05:07:54.075Z,8.18
2022-11-05T05:10:23.480Z,8.13
2022-11-05T05:12:51.113Z,8.14
2022-11-05T05:15:18.851Z,8.18
2022-11-05T05:17:51.218Z,8.13
2022-11-05T05:20:36.240Z,8.03
2022-11-05T05:23:04.201Z,8.03
2022-11-05T05:25:33.415Z,7.98
2022-11-05T05:28:00.939Z,7.92
2022-11-05T05:30:28.566Z,7.82
2022-11-05T05:32:56.362Z,7.89
2022-11-05T05:35:24.788Z,8.04
2022-11-05T05:37:56.091Z,8.04
2022-11-05T05:40:25.150Z,8.16
2022-11-05T05:42:56.194Z,8.11
2022-11-05T05:45:23.786Z,8.17
2022-11-05T05:47:51.358Z,8.19
2022-11-05T05:50:20.273Z,8.23
2022-11-05T05:52:47.859Z,8.26
2022-11-05T05:55:15.468Z,8.29
2022-11-05T05:57:43.049Z,8.27
2022-11-05T06:00:14.116Z,8.35
2022-11-05T06:02:41.903Z,8.35
2022-11-05T06:05:11.262Z,8.38
2022-11-05T06:07:38.858Z,8.45
2022-11-05T06:10:07.510Z,8.41
2022-11-05T06:12:35.173Z,8.41
2022-11-05T06:15:03.163Z,8.51
2022-11-05T06:17:37.544Z,8.42
2022-11-05T06:20:06.028Z,8.47
2022-11-05T06:22:33.660Z,8.44
2022-11-05T06:25:01.618Z,8.29
2022-11-05T06:27:29.838Z,8.25
2022-11-05T06:29:57.548Z,8.37
2022-11-05T06:32:25.250Z,8.41
2022-11-05T06:34:54.165Z,8.45
2022-11-05T06:37:21.974Z,8.50
2022-11-05T06:39:49.885Z,8.54
2022-11-05T06:42:22.723Z,8.49
2022-11-05T06:45:08.736Z,8.52
2022-11-05T06:48:01.634Z,8.32
2022-11-05T06:50:39.216Z,8.33
2022-11-05T06:53:22.868Z,8.27
2022-11-05T06:55:50.607Z,8.33
2022-11-05T06:58:18.146Z,8.44
2022-11-05T07:00:45.960Z,8.39
2022-11-05T07:03:14.095Z,8.50
2022-11-05T07:05:45.035Z,8.54
2022-11-05T07:08:12.609Z,8.38
2022-11-05T07:10:40.263Z,8.38
2022-11-05T07:13:08.356Z,8.45
2022-11-05T07:15:36.566Z,8.51
2022-11-05T07:18:05.178Z,8.50
2022-11-05T07:20:34.438Z,8.52
2022-11-05T07:23:07.612Z,8.53
2022-11-05T07:25:35.977Z,8.36
2022-11-05T07:28:06.946Z,8.58
2022-11-05T07:30:35.878Z,8.63
2022-11-05T07:33:08.275Z,8.69
2022-11-05T07:35:36.309Z,8.74
2022-11-05T07:38:15.804Z,8.78
2022-11-05T07:40:49.708Z,8.86
2022-11-05T07:43:25.380Z,8.90
2022-11-05T07:45:56.951Z,8.92
2022-11-05T07:48:24.737Z,8.94
2022-11-05T07:50:57.685Z,8.98
2022-11-05T07:53:45.553Z,8.92
2022-11-05T07:56:13.802Z,8.90
2022-11-05T07:58:49.450Z,9.03
2022-11-05T08:01:22.129Z,8.94
2022-11-05T08:03:52.885Z,8.90
2022-11-05T08:06:20.859Z,9.03
2022-11-05T08:08:56.254Z,9.07
2022-11-05T08:11:24.406Z,8.99
2022-11-05T08:13:57.262Z,8.82
2022-11-05T08:16:26.345Z,8.80
2022-11-05T08:18:53.878Z,8.73
2022-11-05T08:21:24.472Z,8.88
2022-11-05T08:23:53.453Z,8.91
2022-11-05T08:26:24.919Z,9.01
2022-11-05T08:28:52.587Z,9.01
2022-11-05T08:31:20.257Z,9.14
2022-11-05T08:33:47.768Z,9.24
2022-11-05T08:36:15.359Z,9.27
2022-11-05T08:38:42.826Z,9.30
2022-11-05T08:41:11.863Z,9.28
2022-11-05T08:43:39.351Z,9.28
2022-11-05T08:46:07.085Z,9.42
2022-11-05T08:48:34.625Z,9.55
2022-11-05T08:51:02.592Z,9.65
2022-11-05T08:53:30.143Z,9.77
2022-11-05T08:55:59.333Z,9.85
2022-11-05T08:58:28.144Z,9.85
2022-11-05T09:00:58.999Z,9.87
2022-11-05T09:03:29.414Z,9.95
2022-11-05T09:05:56.954Z,9.92
2022-11-05T09:08:24.469Z,9.91
2022-11-05T09:10:51.923Z,10.03
2022-11-05T09:13:22.501Z,10.10
2022-11-05T09:15:51.861Z,10.14
2022-11-05T09:18:20.378Z,10.15
2022-11-05T09:20:48.168Z,10.21
2022-11-05T09:23:16.889Z,10.36
2022-11-05T09:25:45.034Z,10.37
2022-11-05T09:28:16.866Z,10.38
2022-11-05T09:30:46.143Z,10.42
2022-11-05T09:33:15.497Z,10.29
2022-11-05T09:35:43.698Z,10.36
2022-11-05T09:38:11.532Z,10.34
2022-11-05T09:40:43.452Z,10.14
2022-11-05T09:43:26.043Z,10.22
2022-11-05T09:46:06.189Z,10.14
2022-11-05T09:48:36.456Z,10.22
2022-11-05T09:51:05.377Z,10.10
2022-11-05T09:53:33.183Z,10.05
2022-11-05T09:56:01.702Z,10.13
2022-11-05T09:58:46.817Z,10.14
2022-11-05T10:01:17.140Z,10.20
2022-11-05T10:04:00.215Z,10.27
2022-11-05T10:06:30.843Z,10.30
2022-11-05T10:09:04.758Z,10.22
2022-11-05T10:11:36.225Z,10.24
2022-11-05T10:14:08.577Z,10.17
2022-11-05T10:16:37.529Z,10.17
2022-11-05T10:19:09.730Z,10.30
2022-11-05T10:22:04.845Z,10.36
2022-11-05T10:24:28.625Z,10.43
2022-11-05T10:26:56.556Z,10.46
2022-11-05T10:29:27.500Z,10.50
2022-11-05T10:31:58.990Z,10.59
2022-11-05T10:34:30.288Z,10.61
2022-11-05T10:36:58.141Z,10.59
2022-11-05T10:39:27.973Z,10.52
2022-11-05T10:42:18.563Z,10.71
2022-11-05T10:44:50.799Z,10.73
2022-11-05T10:47:33.798Z,10.75
2022-11-05T10:50:04.241Z,10.83
2022-11-05T10:52:34.935Z,10.79
2022-11-05T10:55:05.507Z,10.87
2022-11-05T10:57:36.073Z,10.92
2022-11-05T11:00:23.940Z,10.83
2022-11-05T11:02:53.391Z,10.84
2022-11-05T11:05:24.234Z,10.87
2022-11-05T11:07:58.420Z,10.93
2022-11-05T11:10:26.720Z,10.94
2022-11-05T11:12:55.243Z,10.91
2022-11-05T11:15:27.434Z,10.90
2022-11-05T11:17:57.695Z,10.93
2022-11-05T11:20:29.535Z,10.98
2022-11-05T11:23:03.161Z,11.09
2022-11-05T11:25:33.379Z,11.16
2022-11-05T11:28:05.241Z,11.10
2022-11-05T11:30:33.673Z,11.13
2022-11-05T11:33:06.827Z,11.17
2022-11-05T11:35:37.986Z,11.23
2022-11-05T11:38:06.701Z,11.23
2022-11-05T11:40:36.400Z,11.23
2022-11-05T11:43:06.911Z,11.27
2022-11-05T11:45:36.723Z,11.31
2022-11-05T11:48:07.270Z,11.37
2022-11-05T11:50:38.967Z,11.45
2022-11-05T11:53:27.156Z,11.47
2022-11-05T11:55:59.942Z,11.55
2022-11-05T11:58:38.310Z,11.49
2022-11-05T12:01:16.621Z,11.49
2022-11-05T12:03:50.378Z,11.36
2022-11-05T12:06:26.604Z,11.40
2022-11-05T12:09:03.562Z,11.41
2022-11-05T12:11:36.660Z,11.43
2022-11-05T12:14:06.298Z,11.51
2022-11-05T12:17:02.632Z,11.36
2022-11-05T12:19:43.081Z,11.53
2022-11-05T12:22:20.776Z,11.48
2022-11-05T12:25:02.419Z,11.50
2022-11-05T12:27:44.864Z,11.48
2022-11-05T12:30:15.306Z,11.56
2022-11-05T12:32:58.520Z,11.56
2022-11-05T12:35:44.205Z,11.63
2022-11-05T12:38:28.076Z,11.67
2022-11-05T12:41:06.259Z,11.62
2022-11-05T12:43:42.804Z,11.63
2022-11-05T12:46:27.573Z,11.63
2022-11-05T12:49:04.864Z,11.59
2022-11-05T12:51:41.691Z,11.75
2022-11-05T12:54:19.250Z,11.81
2022-11-05T12:56:49.038Z,11.92
2022-11-05T12:59:22.102Z,11.83
2022-11-05T13:01:51.911Z,11.73
2022-11-05T13:04:31.366Z,11.51
2022-11-05T13:07:01.727Z,11.63
2022-11-05T13:09:35.557Z,11.50
2022-11-05T13:12:06.237Z,11.36
2022-11-05T13:14:37.105Z,11.37
2022-11-05T13:17:07.413Z,11.33
2022-11-05T13:19:38.481Z,11.35
2022-11-05T13:22:13.140Z,11.47
2022-11-05T13:24:46.880Z,11.31
2022-11-05T13:27:28.983Z,11.45
2022-11-05T13:30:00.872Z,11.38
2022-11-05T13:32:30.511Z,11.43
2022-11-05T13:34:58.192Z,11.53
2022-11-05T13:37:45.703Z,11.57
2022-11-05T13:40:17.804Z,11.69
2022-11-05T13:43:13.373Z,11.59
2022-11-05T13:45:52.826Z,11.61
2022-11-05T13:48:39.637Z,11.55
2022-11-05T13:51:27.321Z,11.47
2022-11-05T13:54:10.770Z,11.48
2022-11-05T13:56:52.469Z,11.36
2022-11-05T13:59:33.765Z,11.25
2022-11-05T14:02:03.421Z,10.99
2022-11-05T14:04:33.863Z,10.93
2022-11-05T14:07:09.708Z,10.93
2022-11-05T14:09:38.344Z,10.95
2022-11-05T14:12:08.817Z,10.80
2022-11-05T14:14:44.174Z,10.78
2022-11-05T14:17:17.004Z,10.72
2022-11-05T14:19:53.150Z,10.87
2022-11-05T14:22:38.149Z,11.01
2022-11-05T14:25:39.451Z,11.05
2022-11-05T14:28:45.644Z,11.08
2022-11-05T14:32:02.507Z,10.86
2022-11-05T14:34:24.854Z,10.90
2022-11-05T14:37:29.380Z,10.90
2022-11-05T14:39:57.734Z,10.90
2022-11-05T14:42:27.866Z,10.88
2022-11-05T14:45:06.220Z,10.93
2022-11-05T14:47:39.250Z,10.85
2022-11-05T14:50:11.546Z,10.85
2022-11-05T14:52:41.687Z,10.86
2022-11-05T14:55:27.559Z,10.61
2022-11-05T14:58:09.543Z,10.54
2022-11-05T15:00:49.032Z,10.32
2022-11-05T15:03:50.287Z,10.43
2022-11-05T15:06:32.582Z,10.27
2022-11-05T15:09:34.072Z,10.52
2022-11-05T15:12:20.474Z,10.47
2022-11-05T15:14:59.573Z,10.54
2022-11-05T15:17:30.908Z,10.57
2022-11-05T15:20:09.336Z,10.40
2022-11-05T15:22:40.485Z,10.34
2022-11-05T15:25:19.392Z,10.29
2022-11-05T15:27:57.919Z,10.21
2022-11-05T15:30:27.515Z,10.12
2022-11-05T15:33:11.467Z,10.10
2022-11-05T15:35:41.547Z,9.98
2022-11-05T15:38:28.910Z,10.00
2022-11-05T15:41:01.436Z,9.95
2022-11-05T15:43:29.253Z,9.99
2022-11-05T15:46:02.642Z,9.96
2022-11-05T15:48:33.412Z,9.83
2022-11-05T15:51:11.886Z,9.95
2022-11-05T15:56:58.950Z,9.87
2022-11-05T15:59:28.161Z,10.00
2022-11-05T16:01:59.889Z,9.92
2022-11-05T16:04:33.020Z,9.95
2022-11-05T16:07:04.533Z,10.01
2022-11-05T16:09:33.852Z,9.88
2022-11-05T16:12:15.920Z,9.86
2022-11-05T16:14:45.819Z,9.92
2022-11-05T16:17:21.387Z,10.02
2022-11-05T16:19:51.403Z,9.69
2022-11-05T16:22:19.663Z,9.47
2022-11-05T16:24:48.306Z,9.38
2022-11-05T16:27:19.580Z,9.26
2022-11-05T16:29:53.033Z,9.15
2022-11-05T16:32:28.630Z,9.26
2022-11-05T16:35:00.611Z,9.27
2022-11-05T16:37:28.971Z,9.30
2022-11-05T16:39:56.742Z,9.06
2022-11-05T16:42:38.986Z,8.87
2022-11-05T16:45:07.952Z,8.80
2022-11-05T16:47:35.662Z,8.79
2022-11-05T16:50:15.079Z,8.74
2022-11-05T16:52:42.897Z,8.75
2022-11-05T16:55:10.618Z,8.65
2022-11-05T16:57:38.326Z,8.61
2022-11-05T17:00:07.604Z,8.78
2022-11-05T17:02:35.370Z,8.65
2022-11-05T17:05:04.604Z,8.79
2022-11-05T17:07:38.562Z,8.88
2022-11-05T17:10:09.245Z,8.73
2022-11-05T17:12:36.970Z,8.82
2022-11-05T17:15:16.029Z,8.73
2022-11-05T17:17:43.856Z,8.64
2022-11-05T17:20:15.512Z,8.70
2022-11-05T17:22:43.296Z,8.63
2022-11-05T17:25:11.116Z,8.77
2022-11-05T17:27:39.129Z,8.70
2022-11-05T17:30:08.445Z,8.69
2022-11-05T17:32:36.259Z,8.64
2022-11-05T17:35:04.737Z,8.64
2022-11-05T17:37:36.074Z,8.58
2022-11-05T17:40:04.866Z,8.32
2022-11-05T17:42:32.542Z,8.31
2022-11-05T17:45:00.336Z,8.28
2022-11-05T17:47:32.044Z,8.25
2022-11-05T17:49:59.823Z,8.32
2022-11-05T17:52:28.900Z,8.45
2022-11-05T17:54:59.955Z,8.45
2022-11-05T17:57:28.497Z,8.47
2022-11-05T17:59:56.264Z,8.72
2022-11-05T18:02:24.002Z,8.64
2022-11-05T18:04:52.125Z,8.47
2022-11-05T18:07:19.896Z,8.15
2022-11-05T18:09:47.852Z,8.31
2022-11-05T18:12:17.051Z,8.43
2022-11-05T18:14:44.849Z,8.33
2022-11-05T18:17:14.518Z,8.15
2022-11-05T18:19:42.206Z,8.34
2022-11-05T18:22:09.903Z,8.46
2022-11-05T18:24:37.470Z,8.42
2022-11-05T18:27:05.345Z,8.47
2022-11-05T18:29:34.394Z,8.42
2022-11-05T18:32:02.121Z,8.31
2022-11-05T18:34:30.010Z,8.38
2022-11-05T18:36:57.818Z,8.40
2022-11-05T18:39:25.775Z,8.31
2022-11-05T18:41:53.489Z,8.29
2022-11-05T18:44:22.866Z,8.51
2022-11-05T18:46:57.982Z,8.39
2022-11-05T18:49:26.370Z,8.38
2022-11-05T18:51:54.152Z,8.40
2022-11-05T18:54:21.990Z,8.38
2022-11-05T18:56:49.578Z,8.35
2022-11-05T19:02:09.217Z,8.31
2022-11-05T19:04:37.169Z,8.18
2022-11-05T19:07:06.002Z,8.10
2022-11-05T19:09:36.983Z,7.95
2022-11-05T19:12:07.111Z,7.87
2022-11-05T19:14:35.376Z,7.80
2022-11-05T19:17:04.253Z,7.92
2022-11-05T19:19:33.284Z,8.04
2022-11-05T19:22:00.960Z,7.98
2022-11-05T19:24:28.694Z,7.83
2022-11-05T19:26:56.762Z,8.04
2022-11-05T19:29:24.498Z,8.10
2022-11-05T19:31:52.296Z,8.07
2022-11-05T19:34:20.515Z,8.11
2022-11-05T19:36:49.559Z,8.09
2022-11-05T19:39:17.191Z,7.91
2022-11-05T19:41:44.781Z,7.87
2022-11-05T19:44:12.581Z,7.94
2022-11-05T19:46:40.244Z,7.95
2022-11-05T19:49:08.083Z,7.83
2022-11-05T19:51:35.678Z,7.73
2022-11-05T19:54:07.757Z,7.90
2022-11-05T19:56:36.719Z,7.76
2022-11-05T19:59:05.611Z,7.76
2022-11-05T20:01:34.132Z,7.79
2022-11-05T20:04:02.414Z,7.69
2022-11-05T20:06:32.899Z,7.49
2022-11-05T20:11:53.753Z,7.53
2022-11-05T20:14:21.755Z,7.37
2022-11-05T20:16:49.966Z,7.29
2022-11-05T20:19:19.376Z,7.46
2022-11-05T20:21:47.472Z,7.30
2022-11-05T20:24:23.326Z,7.25
2022-11-05T20:26:53.951Z,7.06
2022-11-05T20:29:22.341Z,7.13
2022-11-05T20:31:50.525Z,7.25
2022-11-05T20:34:18.167Z,7.53
2022-11-05T20:36:45.882Z,7.39
2022-11-05T20:39:15.339Z,7.42
2022-11-05T20:41:43.309Z,7.34
2022-11-05T20:44:12.448Z,7.26
2022-11-05T20:46:40.593Z,7.37
2022-11-05T20:49:08.215Z,7.45
2022-11-05T20:51:35.978Z,7.34
2022-11-05T20:54:04.293Z,7.44
2022-11-05T20:56:34.676Z,7.35
2022-11-05T20:59:02.977Z,7.17
2022-11-05T21:01:33.767Z,7.18
2022-11-05T21:04:02.810Z,7.19
2022-11-05T21:06:30.746Z,7.15
2022-11-05T21:08:58.700Z,7.29
2022-11-05T21:11:26.596Z,7.37
2022-11-05T21:13:55.099Z,7.30
2022-11-05T21:16:22.812Z,7.29
2022-11-05T21:18:51.929Z,7.35
2022-11-05T21:21:21.562Z,7.25
2022-11-05T21:23:51.522Z,7.46
2022-11-05T21:26:19.443Z,7.32
2022-11-05T21:28:47.273Z,7.30
2022-11-05T21:31:15.151Z,7.32
2022-11-05T21:33:42.811Z,7.32
2022-11-05T21:36:14.266Z,7.38
2022-11-05T21:38:42.548Z,7.43
2022-11-05T21:41:12.436Z,7.46
2022-11-05T21:43:41.669Z,7.36
2022-11-05T21:46:09.466Z,7.32
2022-11-05T21:48:37.692Z,7.29
2022-11-05T21:51:19.717Z,7.26
2022-11-05T21:54:07.520Z,7.22
2022-11-05T21:56:52.762Z,7.24
2022-11-05T21:59:40.340Z,7.18
2022-11-05T22:02:12.737Z,7.27
2022-11-05T22:04:42.279Z,7.25
2022-11-05T22:07:11.080Z,7.27
2022-11-05T22:09:40.172Z,7.43
2022-11-05T22:12:08.525Z,7.33
2022-11-05T22:14:36.395Z,7.29
2022-11-05T22:17:04.104Z,7.35
2022-11-05T22:19:33.530Z,7.40
2022-11-05T22:22:01.061Z,7.29
2022-11-05T22:24:30.667Z,7.39
2022-11-05T22:26:59.741Z,7.28
2022-11-05T22:29:27.642Z,7.44
2022-11-05T22:31:57.472Z,7.61
2022-11-05T22:34:25.579Z,7.40
2022-11-05T22:36:53.726Z,7.31
2022-11-05T22:39:21.647Z,7.35
2022-11-05T22:41:49.910Z,7.35
2022-11-05T22:44:19.072Z,7.40
2022-11-05T22:46:46.938Z,7.38
2022-11-05T22:49:15.010Z,7.42
2022-11-05T22:51:43.721Z,7.19
2022-11-05T22:54:12.042Z,6.99
2022-11-05T22:56:41.223Z,6.88
2022-11-05T22:59:12.080Z,6.94
2022-11-05T23:01:41.935Z,7.09
2022-11-05T23:04:10.179Z,7.08
2022-11-05T23:06:55.491Z,7.06
2022-11-05T23:09:42.667Z,6.97
2022-11-05T23:12:21.036Z,7.06
2022-11-05T23:14:48.850Z,7.16
2022-11-05T23:17:35.885Z,7.06
2022-11-05T23:20:23.486Z,7.14
2022-11-05T23:23:08.807Z,7.05
2022-11-05T23:25:36.756Z,7.22
2022-11-05T23:28:07.769Z,7.02
2022-11-05T23:30:35.647Z,7.06
2022-11-05T23:33:03.865Z,6.92
2022-11-05T23:35:48.859Z,6.89
2022-11-05T23:38:35.364Z,6.96
2022-11-05T23:41:20.899Z,6.86
2022-11-05T23:44:06.330Z,6.79
2022-11-05T23:46:51.778Z,6.85
2022-11-05T23:49:20.962Z,6.98
2022-11-05T23:51:51.643Z,7.04
2022-11-05T23:54:19.394Z,7.10
2022-11-05T23:56:47.093Z,7.23
2022-11-05T23:59:14.762Z,7.16
